Time;durP1;ratioP1;P1;durP2;ratioP2;P2;SDS_P1;SDS_P2;PMS_P1;PMS_P2;Temp;Humidity;BMP_temperature;BMP_pressure;BME280_temperature;BME280_humidity;BME280_pressure;Samples;Min_cycle;Max_cycle;Signal;HPM_P1;HPM_P2
2023/08/31 00:01:39;;;;;;;8.77;2.60;;;;;;;;;;5091513;28;20215;-47
2023/08/31 00:04:07;;;;;;;6.22;3.17;;;13.70;99.90;;;;;;5091056;28;20504;-50
2023/08/31 00:06:32;;;;;;;8.77;3.50;;;13.70;99.90;;;;;;5091835;28;20177;-46
2023/08/31 00:08:59;;;;;;;4.15;2.70;;;13.70;99.90;;;;;;5091728;28;20203;-46
2023/08/31 00:11:25;;;;;;;6.43;3.33;;;13.60;99.90;;;;;;5090193;28;20189;-46
2023/08/31 00:13:52;;;;;;;7.22;3.10;;;13.60;99.90;;;;;;5091601;28;20184;-46
2023/08/31 00:16:17;;;;;;;8.05;2.88;;;13.60;99.90;;;;;;5091915;28;20209;-45
2023/08/31 00:18:44;;;;;;;5.35;2.97;;;13.60;99.90;;;;;;5091292;28;20508;-45
2023/08/31 00:21:10;;;;;;;10.18;3.20;;;13.60;99.90;;;;;;5091283;28;20681;-46
2023/08/31 00:23:37;;;;;;;6.55;3.15;;;13.60;99.90;;;;;;5091270;28;20245;-46
2023/08/31 00:26:02;;;;;;;7.03;2.80;;;13.60;99.90;;;;;;5091511;28;20182;-45
2023/08/31 00:28:28;;;;;;;7.28;3.35;;;13.60;99.90;;;;;;5093250;28;20319;-45
2023/08/31 00:30:54;;;;;;;6.18;3.30;;;13.50;99.90;;;;;;5095127;28;20172;-46
2023/08/31 00:33:19;;;;;;;7.70;3.97;;;13.40;99.90;;;;;;5095183;28;20240;-46
2023/08/31 00:35:48;;;;;;;5.65;3.45;;;13.40;99.90;;;;;;5095609;28;20219;-46
2023/08/31 00:38:16;;;;;;;3.20;2.90;;;13.40;99.90;;;;;;5095561;28;20161;-46
2023/08/31 00:40:45;;;;;;;5.55;3.50;;;13.30;99.90;;;;;;5095051;28;20166;-46
2023/08/31 00:43:10;;;;;;;4.57;3.08;;;13.30;99.90;;;;;;5094699;28;20661;-46
2023/08/31 00:45:37;;;;;;;6.65;3.65;;;13.30;99.90;;;;;;5094855;28;20181;-47
2023/08/31 00:48:04;;;;;;;8.63;3.58;;;13.30;99.90;;;;;;5095069;28;20215;-48
2023/08/31 00:50:30;;;;;;;9.07;4.15;;;13.20;99.90;;;;;;5094788;28;20161;-49
2023/08/31 00:52:56;;;;;;;6.95;3.35;;;13.20;99.90;;;;;;5094698;28;20203;-46
2023/08/31 00:55:22;;;;;;;7.45;3.67;;;13.10;99.90;;;;;;5094623;28;20201;-46
2023/08/31 00:57:48;;;;;;;7.32;3.35;;;;;;;;;;5094737;28;20170;-47
2023/08/31 01:00:14;;;;;;;4.05;3.00;;;13.10;99.90;;;;;;5095066;28;20223;-45
2023/08/31 01:02:50;;;;;;;6.30;3.70;;;13.10;99.90;;;;;;5094576;28;20165;-46
2023/08/31 01:05:24;;;;;;;7.55;3.67;;;13.10;99.90;;;;;;5095189;28;20274;-45
2023/08/31 01:08:06;;;;;;;6.28;3.25;;;13.10;99.90;;;;;;5094460;28;20168;-46
2023/08/31 01:10:54;;;;;;;6.57;3.53;;;13.00;99.90;;;;;;5094626;28;20165;-46
2023/08/31 01:13:24;;;;;;;4.85;2.80;;;13.00;99.90;;;;;;5094335;28;20189;-46
2023/08/31 01:15:54;;;;;;;5.60;3.30;;;12.90;99.90;;;;;;5094197;28;20207;-46
2023/08/31 01:18:24;;;;;;;5.03;3.60;;;13.00;99.90;;;;;;5094503;28;20563;-46
2023/08/31 01:20:53;;;;;;;6.68;3.85;;;12.90;99.90;;;;;;5094180;28;20161;-47
2023/08/31 01:23:20;;;;;;;5.18;3.85;;;12.90;99.90;;;;;;5094431;28;20257;-46
2023/08/31 01:25:48;;;;;;;7.82;3.83;;;12.90;99.90;;;;;;5094735;28;20594;-45
2023/08/31 01:28:14;;;;;;;5.65;3.85;;;12.90;99.90;;;;;;5094740;28;20572;-45
2023/08/31 01:30:40;;;;;;;5.07;3.63;;;12.90;99.90;;;;;;5094184;28;20173;-46
2023/08/31 01:33:06;;;;;;;7.05;3.63;;;12.90;99.90;;;;;;5094234;28;20252;-45
2023/08/31 01:35:41;;;;;;;10.63;4.40;;;12.80;99.90;;;;;;5093973;28;20288;-45
2023/08/31 01:38:09;;;;;;;5.55;3.80;;;12.80;99.90;;;;;;5094136;28;20499;-45
2023/08/31 01:40:36;;;;;;;6.00;3.53;;;12.80;99.90;;;;;;5093339;28;20169;-46
2023/08/31 01:43:04;;;;;;;4.95;3.45;;;12.80;99.90;;;;;;5093571;28;20165;-46
2023/08/31 01:45:31;;;;;;;6.90;4.20;;;12.70;99.90;;;;;;5093793;28;20246;-46
2023/08/31 01:47:57;;;;;;;7.53;4.38;;;12.70;99.90;;;;;;5093638;28;20168;-46
2023/08/31 01:50:23;;;;;;;8.93;3.75;;;12.70;99.90;;;;;;5093682;28;20252;-46
2023/08/31 01:52:48;;;;;;;7.00;4.00;;;12.70;99.90;;;;;;5093652;28;20212;-46
2023/08/31 01:55:15;;;;;;;3.97;3.10;;;12.70;99.90;;;;;;5093859;28;20673;-45
2023/08/31 01:57:41;;;;;;;6.68;3.88;;;12.70;99.90;;;;;;5093833;28;20173;-46
2023/08/31 02:00:08;;;;;;;6.63;3.80;;;12.60;99.90;;;;;;5093433;28;20264;-46
2023/08/31 02:02:34;;;;;;;6.63;4.00;;;12.60;99.90;;;;;;5093654;28;20180;-46
2023/08/31 02:05:01;;;;;;;4.97;3.28;;;12.60;99.90;;;;;;5093441;28;20173;-46
2023/08/31 02:07:27;;;;;;;5.10;3.22;;;12.70;99.90;;;;;;5093543;28;20170;-45
2023/08/31 02:09:52;;;;;;;8.38;3.42;;;12.60;99.90;;;;;;5093332;28;20231;-46
2023/08/31 02:12:18;;;;;;;9.07;3.58;;;12.60;99.90;;;;;;5093340;28;20197;-45
2023/08/31 02:14:43;;;;;;;7.15;3.38;;;12.60;99.90;;;;;;5093456;28;20200;-46
2023/08/31 02:17:09;;;;;;;5.15;3.38;;;12.60;99.90;;;;;;5093153;28;20204;-45
2023/08/31 02:19:35;;;;;;;7.82;3.88;;;;;;;;;;5093057;28;20193;-46
2023/08/31 02:22:00;;;;;;;5.68;3.25;;;12.60;99.90;;;;;;5093082;28;20200;-47
2023/08/31 02:24:26;;;;;;;4.30;2.70;;;12.50;99.90;;;;;;5093022;28;20190;-46
2023/08/31 02:26:52;;;;;;;4.18;2.90;;;12.50;99.90;;;;;;5093018;28;20161;-46
2023/08/31 02:29:18;;;;;;;9.68;3.42;;;;;;;;;;5093313;28;20199;-46
2023/08/31 02:31:45;;;;;;;4.88;3.38;;;12.60;99.90;;;;;;5093534;28;20176;-46
2023/08/31 02:34:10;;;;;;;4.20;2.78;;;12.50;99.90;;;;;;5092744;28;20638;-46
2023/08/31 02:36:36;;;;;;;4.80;2.90;;;12.50;99.90;;;;;;5092651;28;20253;-46
2023/08/31 02:39:03;;;;;;;3.90;2.88;;;12.50;99.90;;;;;;5092651;28;20169;-46
2023/08/31 02:41:29;;;;;;;3.92;2.60;;;12.50;99.90;;;;;;5092906;28;20186;-45
2023/08/31 02:43:54;;;;;;;4.70;3.08;;;12.50;99.90;;;;;;5092528;28;20216;-47
2023/08/31 02:46:20;;;;;;;6.50;2.85;;;12.50;99.90;;;;;;5092837;28;20209;-46
2023/08/31 02:48:46;;;;;;;3.97;2.58;;;12.50;99.90;;;;;;5093204;28;20188;-46
2023/08/31 02:51:12;;;;;;;3.90;2.65;;;12.50;99.90;;;;;;5091621;28;20204;-46
2023/08/31 02:53:37;;;;;;;4.13;2.50;;;12.50;99.90;;;;;;5092224;28;20169;-46
2023/08/31 02:56:03;;;;;;;4.13;2.58;;;12.50;99.90;;;;;;5092343;28;20204;-45
2023/08/31 02:58:29;;;;;;;4.68;2.70;;;12.50;99.90;;;;;;5092590;28;20177;-45
2023/08/31 03:00:55;;;;;;;6.03;2.72;;;12.50;99.90;;;;;;5091030;28;20643;-48
2023/08/31 03:03:21;;;;;;;6.55;2.70;;;12.50;99.90;;;;;;5092237;28;20594;-46
2023/08/31 03:05:47;;;;;;;2.90;2.70;;;12.50;99.90;;;;;;5092671;28;20257;-46
2023/08/31 03:08:13;;;;;;;3.17;2.25;;;12.50;99.90;;;;;;5092833;28;20188;-46
2023/08/31 03:10:39;;;;;;;4.07;2.65;;;12.50;99.90;;;;;;5092091;28;20638;-46
2023/08/31 03:13:05;;;;;;;3.00;2.70;;;12.60;99.90;;;;;;5092113;28;20162;-47
2023/08/31 03:15:33;;;;;;;4.97;2.50;;;12.60;99.90;;;;;;5092202;28;20224;-45
2023/08/31 03:17:59;;;;;;;3.72;2.67;;;12.60;99.90;;;;;;5092259;28;20170;-45
2023/08/31 03:20:24;;;;;;;3.25;2.60;;;12.60;99.90;;;;;;5091961;28;20222;-46
2023/08/31 03:22:50;;;;;;;5.68;2.42;;;12.70;99.90;;;;;;5091883;28;20203;-46
2023/08/31 03:25:15;;;;;;;3.97;2.58;;;12.70;99.90;;;;;;5092330;28;20172;-46
2023/08/31 03:27:41;;;;;;;4.45;3.25;;;12.70;99.90;;;;;;5091866;28;20644;-46
2023/08/31 03:30:07;;;;;;;6.72;2.80;;;12.70;99.90;;;;;;5091743;28;20664;-46
2023/08/31 03:32:33;;;;;;;3.15;2.53;;;12.70;99.90;;;;;;5091821;28;20173;-48
2023/08/31 03:34:58;;;;;;;4.75;2.60;;;12.80;99.90;;;;;;5091754;28;20230;-47
2023/08/31 03:37:24;;;;;;;4.45;3.30;;;12.80;99.90;;;;;;5091693;28;20280;-46
2023/08/31 03:39:50;;;;;;;4.32;2.92;;;12.80;99.90;;;;;;5091777;28;20157;-46
2023/08/31 03:42:15;;;;;;;4.70;3.25;;;12.80;99.90;;;;;;5092051;28;20169;-46
2023/08/31 03:44:41;;;;;;;5.88;2.88;;;12.80;99.90;;;;;;5091549;28;20212;-46
2023/08/31 03:47:07;;;;;;;4.32;3.30;;;12.80;99.90;;;;;;5091577;28;20622;-46
2023/08/31 03:49:34;;;;;;;5.80;2.88;;;12.80;99.90;;;;;;5091604;28;20579;-45
2023/08/31 03:52:00;;;;;;;3.75;2.75;;;12.70;99.90;;;;;;5091908;28;20226;-45
2023/08/31 03:54:26;;;;;;;3.70;3.35;;;12.70;99.90;;;;;;5091184;28;20177;-45
2023/08/31 03:56:51;;;;;;;3.85;2.90;;;12.70;99.90;;;;;;5091371;28;20216;-46
2023/08/31 03:59:18;;;;;;;4.25;3.13;;;12.70;99.90;;;;;;5092099;28;20168;-46
2023/08/31 04:01:44;;;;;;;3.55;3.15;;;;;;;;;;5092528;28;20177;-46
2023/08/31 04:04:09;;;;;;;6.40;3.60;;;12.60;99.90;;;;;;5094887;28;20169;-46
2023/08/31 04:06:35;;;;;;;4.47;3.05;;;12.60;99.90;;;;;;5095726;28;20214;-46
2023/08/31 04:09:00;;;;;;;5.05;3.22;;;12.60;99.90;;;;;;5095608;28;20180;-45
2023/08/31 04:11:26;;;;;;;3.85;3.00;;;12.60;99.90;;;;;;5095744;28;20157;-46
2023/08/31 04:13:52;;;;;;;5.47;3.50;;;12.50;99.90;;;;;;5095857;28;20181;-46
2023/08/31 04:16:17;;;;;;;6.25;3.40;;;12.50;99.90;;;;;;5095498;28;20595;-46
2023/08/31 04:18:45;;;;;;;4.45;3.25;;;12.50;99.90;;;;;;5096108;28;20170;-46
2023/08/31 04:21:10;;;;;;;4.28;3.40;;;12.50;99.90;;;;;;5095651;28;20173;-45
2023/08/31 04:23:36;;;;;;;5.28;3.88;;;12.40;99.90;;;;;;5095345;28;20226;-46
2023/08/31 04:26:11;;;;;;;3.67;3.17;;;12.40;99.90;;;;;;5095318;28;20188;-45
2023/08/31 04:28:37;;;;;;;4.90;3.72;;;12.40;99.90;;;;;;5095194;28;20165;-46
2023/08/31 04:31:05;;;;;;;5.00;3.92;;;12.40;99.90;;;;;;5095474;28;20230;-45
2023/08/31 04:33:30;;;;;;;9.25;3.92;;;12.40;99.90;;;;;;5095159;28;20153;-45
2023/08/31 04:35:56;;;;;;;4.78;3.40;;;12.40;99.90;;;;;;5095042;28;20687;-46
2023/08/31 04:38:21;;;;;;;8.60;3.70;;;12.40;99.90;;;;;;5095061;28;20688;-45
2023/08/31 04:40:47;;;;;;;5.07;3.72;;;;;;;;;;5094968;28;20260;-46
2023/08/31 04:43:13;;;;;;;7.70;4.22;;;12.30;99.90;;;;;;5095159;28;20215;-46
2023/08/31 04:45:38;;;;;;;6.18;4.03;;;12.30;99.90;;;;;;5094863;28;20270;-46
2023/08/31 04:48:04;;;;;;;3.92;3.17;;;12.30;99.90;;;;;;5094814;28;20629;-46
2023/08/31 04:50:30;;;;;;;5.38;4.07;;;12.30;99.90;;;;;;5094839;28;20642;-46
2023/08/31 04:52:55;;;;;;;4.85;3.63;;;12.20;99.90;;;;;;5094616;28;20184;-45
2023/08/31 04:55:22;;;;;;;5.75;3.85;;;12.30;99.90;;;;;;5094884;28;20349;-46
2023/08/31 04:57:47;;;;;;;7.43;3.97;;;12.20;99.90;;;;;;5094859;28;20516;-45
2023/08/31 05:00:13;;;;;;;4.30;3.58;;;12.30;99.90;;;;;;5095083;28;20172;-44
2023/08/31 05:02:39;;;;;;;10.23;4.00;;;12.20;99.90;;;;;;5094517;28;20169;-45
2023/08/31 05:05:05;;;;;;;6.70;4.07;;;12.20;99.90;;;;;;5093139;28;20601;-44
2023/08/31 05:07:31;;;;;;;7.25;4.45;;;12.30;99.90;;;;;;5094382;28;20189;-44
2023/08/31 05:09:56;;;;;;;5.97;3.70;;;12.30;99.90;;;;;;5094366;28;20246;-45
2023/08/31 05:12:22;;;;;;;7.88;4.53;;;12.30;99.90;;;;;;5094459;28;20177;-44
2023/08/31 05:14:48;;;;;;;3.90;3.47;;;12.30;99.90;;;;;;5093095;28;20161;-45
2023/08/31 05:17:13;;;;;;;7.15;4.32;;;12.30;99.90;;;;;;5094600;28;20670;-45
2023/08/31 05:19:39;;;;;;;7.20;4.03;;;12.30;99.90;;;;;;5094197;28;20177;-47
2023/08/31 05:22:05;;;;;;;7.97;4.53;;;12.30;99.90;;;;;;5094454;28;20180;-44
2023/08/31 05:24:31;;;;;;;8.07;4.40;;;;;;;;;;5094200;28;20161;-44
2023/08/31 05:26:57;;;;;;;5.93;3.67;;;12.30;99.90;;;;;;5092842;28;20601;-47
2023/08/31 05:29:22;;;;;;;9.05;3.75;;;12.30;99.90;;;;;;5093960;28;20173;-45
2023/08/31 05:31:48;;;;;;;9.43;4.40;;;12.30;99.90;;;;;;5093965;28;20207;-46
2023/08/31 05:34:17;;;;;;;9.50;4.00;;;12.40;99.90;;;;;;5094407;28;20208;-46
2023/08/31 05:36:43;;;;;;;5.25;4.05;;;12.40;99.90;;;;;;5094501;28;20217;-45
2023/08/31 05:39:09;;;;;;;6.13;3.78;;;12.40;99.90;;;;;;5093888;28;20626;-45
2023/08/31 05:41:35;;;;;;;5.35;3.53;;;12.40;99.90;;;;;;5094021;28;20642;-45
2023/08/31 05:44:00;;;;;;;10.20;4.25;;;12.40;99.90;;;;;;5093668;28;20221;-44
2023/08/31 05:46:27;;;;;;;7.40;3.70;;;12.50;99.90;;;;;;5093963;28;20165;-44
2023/08/31 05:48:52;;;;;;;7.30;3.67;;;12.60;99.90;;;;;;5093617;28;20192;-45
2023/08/31 05:51:18;;;;;;;5.63;3.45;;;12.60;99.90;;;;;;5093593;28;20165;-45
2023/08/31 05:53:43;;;;;;;6.38;3.63;;;12.60;99.90;;;;;;5094064;28;20173;-45
2023/08/31 05:56:09;;;;;;;5.45;3.10;;;12.70;99.90;;;;;;5093507;28;20205;-45
2023/08/31 05:58:36;;;;;;;5.43;3.40;;;12.80;99.90;;;;;;5101529;28;20506;-47
2023/08/31 06:01:03;;;;;;;7.50;4.10;;;12.80;99.90;;;;;;5112344;28;20190;-47
2023/08/31 06:03:29;;;;;;;9.40;3.67;;;12.80;99.90;;;;;;5112152;28;20164;-48
2023/08/31 06:05:56;;;;;;;4.43;3.35;;;12.90;99.90;;;;;;5110576;28;20247;-48
2023/08/31 06:08:22;;;;;;;10.07;3.58;;;;;;;;;;5111925;28;20716;-47
2023/08/31 06:10:48;;;;;;;4.82;3.25;;;13.10;99.90;;;;;;5111970;28;20251;-48
2023/08/31 06:13:14;;;;;;;4.75;2.95;;;;;;;;;;5110966;28;20255;-48
2023/08/31 06:15:40;;;;;;;8.50;3.35;;;;;;;;;;5111932;28;20262;-47
2023/08/31 06:18:06;;;;;;;5.25;3.30;;;13.20;99.90;;;;;;5111729;28;20165;-47
2023/08/31 06:20:32;;;;;;;7.85;3.70;;;13.30;99.90;;;;;;5110508;28;20169;-47
2023/08/31 06:22:58;;;;;;;7.20;3.72;;;13.40;99.90;;;;;;5111784;28;20169;-47
2023/08/31 06:25:24;;;;;;;7.53;4.40;;;13.40;99.90;;;;;;5111563;28;20176;-48
2023/08/31 06:27:49;;;;;;;4.65;3.08;;;13.50;99.90;;;;;;5111786;28;20176;-47
2023/08/31 06:30:16;;;;;;;8.60;3.78;;;;;;;;;;5112135;28;20180;-47
2023/08/31 06:32:46;;;;;;;5.97;3.42;;;13.80;99.90;;;;;;5112270;28;20530;-47
2023/08/31 06:35:12;;;;;;;6.38;3.20;;;13.90;99.90;;;;;;5111819;28;20192;-46
2023/08/31 06:37:39;;;;;;;4.32;3.25;;;13.90;99.90;;;;;;5111610;28;20179;-46
2023/08/31 06:40:09;;;;;;;7.72;2.80;;;13.90;99.90;;;;;;5111436;28;20251;-47
2023/08/31 06:42:37;;;;;;;7.82;3.53;;;14.00;99.90;;;;;;5111359;28;20185;-47
2023/08/31 06:45:05;;;;;;;7.78;3.30;;;14.00;99.90;;;;;;5111263;28;20212;-46
2023/08/31 06:47:31;;;;;;;5.78;2.85;;;;;;;;;;5111685;28;20168;-47
2023/08/31 06:49:57;;;;;;;6.07;3.05;;;14.20;99.90;;;;;;5111403;28;20531;-46
2023/08/31 06:52:23;;;;;;;5.70;3.03;;;;;;;;;;5111615;27;20172;-48
2023/08/31 06:54:50;;;;;;;4.78;2.90;;;;;;;;;;5110572;28;20577;-50
2023/08/31 06:57:15;;;;;;;4.00;2.65;;;14.40;99.90;;;;;;5110433;28;20177;-46
2023/08/31 06:59:41;;;;;;;3.00;2.63;;;14.40;99.90;;;;;;5110690;28;20227;-47
2023/08/31 07:02:06;;;;;;;5.05;2.70;;;14.50;99.90;;;;;;5110400;28;20762;-46
2023/08/31 07:04:32;;;;;;;5.05;2.47;;;;;;;;;;5110113;28;20533;-46
2023/08/31 07:06:58;;;;;;;3.55;2.65;;;14.60;99.90;;;;;;5110138;28;20544;-47
2023/08/31 07:09:24;;;;;;;4.47;2.25;;;;;;;;;;5109920;28;20630;-46
2023/08/31 07:11:50;;;;;;;4.07;2.80;;;;;;;;;;5110158;28;20625;-46
2023/08/31 07:14:15;;;;;;;10.13;3.08;;;14.90;99.90;;;;;;5111208;28;20179;-46
2023/08/31 07:16:41;;;;;;;8.50;2.53;;;14.90;99.90;;;;;;5110994;28;20204;-47
2023/08/31 07:19:06;;;;;;;7.80;2.60;;;15.00;99.90;;;;;;5110870;28;20168;-47
2023/08/31 07:21:32;;;;;;;6.82;2.60;;;;;;;;;;5110606;28;20168;-46
2023/08/31 07:23:58;;;;;;;8.80;2.50;;;15.20;99.90;;;;;;5110351;28;20161;-49
2023/08/31 07:26:24;;;;;;;3.08;2.40;;;;;;;;;;5110543;28;20175;-47
2023/08/31 07:28:50;;;;;;;7.18;2.67;;;;;;;;;;5110598;28;20161;-47
2023/08/31 07:31:16;;;;;;;7.95;2.30;;;15.40;99.90;;;;;;5111290;28;20168;-47
2023/08/31 07:33:42;;;;;;;4.32;2.25;;;;;;;;;;5109808;28;20206;-47
2023/08/31 07:36:08;;;;;;;3.15;2.30;;;15.50;99.90;;;;;;5110653;28;20299;-47
2023/08/31 07:38:34;;;;;;;4.05;2.40;;;15.60;99.90;;;;;;5110080;28;20260;-47
2023/08/31 07:40:59;;;;;;;4.22;2.10;;;15.70;99.90;;;;;;5110731;28;20264;-46
2023/08/31 07:43:26;;;;;;;5.20;2.53;;;15.80;99.90;;;;;;5110001;28;20282;-47
2023/08/31 07:45:53;;;;;;;5.43;2.25;;;15.80;99.90;;;;;;5109161;28;20176;-47
2023/08/31 07:48:19;;;;;;;4.45;2.38;;;16.00;99.90;;;;;;5110616;28;20638;-47
2023/08/31 07:50:45;;;;;;;4.22;2.20;;;16.10;99.90;;;;;;5110666;28;20165;-50
2023/08/31 07:53:11;;;;;;;3.63;2.10;;;16.20;99.90;;;;;;5110448;28;20168;-47
2023/08/31 07:55:37;;;;;;;3.85;2.08;;;;;;;;;;5109426;28;20252;-47
2023/08/31 07:58:03;;;;;;;3.45;1.80;;;16.30;99.90;;;;;;5109566;28;20248;-47
2023/08/31 08:00:29;;;;;;;11.48;2.20;;;;;;;;;;5109767;28;20168;-47
2023/08/31 08:02:54;;;;;;;5.68;1.95;;;16.70;99.90;;;;;;5109785;28;20522;-46
2023/08/31 08:05:20;;;;;;;4.03;2.00;;;16.90;99.90;;;;;;5109636;28;20618;-47
2023/08/31 08:07:46;;;;;;;3.78;2.28;;;;;;;;;;5109805;28;20654;-47
2023/08/31 08:10:12;;;;;;;3.78;2.10;;;16.70;99.90;;;;;;5110277;28;20172;-47
2023/08/31 08:12:39;;;;;;;4.03;2.20;;;16.70;99.90;;;;;;5109709;28;20183;-47
2023/08/31 08:15:07;;;;;;;3.15;2.25;;;16.70;99.90;;;;;;5109924;28;20545;-47
2023/08/31 08:17:32;;;;;;;5.90;1.90;;;16.80;99.90;;;;;;5110036;28;20256;-48
2023/08/31 08:19:58;;;;;;;5.32;2.22;;;17.00;99.90;;;;;;5109812;28;20251;-48
2023/08/31 08:22:24;;;;;;;3.60;2.08;;;17.20;99.90;;;;;;5109918;28;20168;-50
2023/08/31 08:24:50;;;;;;;4.25;2.28;;;;;;;;;;5109857;28;20165;-47
2023/08/31 08:27:17;;;;;;;3.10;1.83;;;17.20;99.90;;;;;;5110102;28;20195;-47
2023/08/31 08:29:44;;;;;;;4.25;2.10;;;;;;;;;;5110228;28;20183;-48
2023/08/31 08:32:09;;;;;;;6.57;1.95;;;17.30;99.90;;;;;;5109801;28;20659;-47
2023/08/31 08:34:35;;;;;;;3.65;1.75;;;17.30;99.90;;;;;;5109609;28;20408;-48
2023/08/31 08:37:00;;;;;;;3.70;2.03;;;17.40;99.90;;;;;;5109971;28;20295;-47
2023/08/31 08:39:27;;;;;;;4.88;2.00;;;;;;;;;;5109655;28;20248;-47
2023/08/31 08:41:57;;;;;;;6.65;2.15;;;17.50;99.90;;;;;;5109717;28;20181;-47
2023/08/31 08:44:25;;;;;;;3.03;1.90;;;17.60;99.90;;;;;;5109581;28;20218;-48
2023/08/31 08:46:52;;;;;;;5.35;2.00;;;17.70;99.90;;;;;;5109682;28;20191;-45
2023/08/31 08:49:19;;;;;;;4.57;1.65;;;17.70;99.90;;;;;;5111053;28;20171;-48
2023/08/31 08:51:46;;;;;;;5.70;1.90;;;;;;;;;;5113732;27;20172;-47
2023/08/31 08:54:13;;;;;;;3.45;2.00;;;17.70;99.90;;;;;;5114096;28;20197;-47
2023/08/31 08:56:38;;;;;;;6.00;2.30;;;17.80;99.90;;;;;;5113170;28;20231;-47
2023/08/31 08:59:05;;;;;;;4.22;2.10;;;17.90;99.90;;;;;;5113313;28;20199;-47
2023/08/31 09:01:31;;;;;;;2.47;1.98;;;;;;;;;;5113712;28;20165;-48
2023/08/31 09:03:57;;;;;;;4.10;2.20;;;17.90;99.90;;;;;;5113209;28;20661;-47
2023/08/31 09:06:23;;;;;;;4.00;2.15;;;;;;;;;;5112990;28;20173;-49
2023/08/31 09:08:56;;;;;;;5.28;2.30;;;18.00;99.90;;;;;;5113285;28;20172;-47
2023/08/31 09:11:25;;;;;;;4.18;1.85;;;18.20;99.90;;;;;;5113247;28;20297;-47
2023/08/31 09:13:51;;;;;;;3.05;2.13;;;18.10;99.90;;;;;;5112841;28;20243;-47
2023/08/31 09:16:30;;;;;;;6.85;2.47;;;18.20;99.90;;;;;;5112886;28;20204;-47
2023/08/31 09:18:56;;;;;;;4.78;2.25;;;18.30;99.90;;;;;;5113146;28;20284;-47
2023/08/31 09:21:24;;;;;;;3.42;2.08;;;;;;;;;;5113158;28;20168;-48
2023/08/31 09:23:59;;;;;;;6.47;2.17;;;18.60;99.90;;;;;;5112731;28;20161;-47
2023/08/31 09:26:25;;;;;;;5.72;2.08;;;18.40;99.90;;;;;;5112898;28;20265;-48
2023/08/31 09:28:51;;;;;;;6.97;2.70;;;18.50;99.90;;;;;;5112985;28;20640;-48
2023/08/31 09:31:17;;;;;;;7.65;2.50;;;18.50;99.90;;;;;;5112564;28;20165;-47
2023/08/31 09:34:01;;;;;;;4.20;1.95;;;18.50;99.90;;;;;;5113263;28;20176;-47
2023/08/31 09:36:29;;;;;;;3.75;2.10;;;;;;;;;;5112589;28;20212;-47
2023/08/31 09:38:58;;;;;;;3.60;2.10;;;18.30;99.90;;;;;;5112910;28;20506;-48
2023/08/31 09:41:24;;;;;;;6.00;2.20;;;;;;;;;;5112620;28;20176;-48
2023/08/31 09:43:50;;;;;;;5.00;2.40;;;18.80;99.90;;;;;;5112275;28;20719;-47
2023/08/31 09:46:16;;;;;;;4.15;2.03;;;18.80;99.90;;;;;;5112358;28;20218;-47
2023/08/31 09:48:43;;;;;;;7.28;2.58;;;18.80;99.90;;;;;;5112535;28;20221;-47
2023/08/31 09:51:10;;;;;;;3.42;1.83;;;18.50;99.90;;;;;;5112778;28;20210;-48
2023/08/31 09:53:37;;;;;;;2.45;1.77;;;18.70;99.90;;;;;;5112588;28;20499;-49
2023/08/31 09:56:06;;;;;;;4.47;2.28;;;18.50;99.90;;;;;;5112245;28;20204;-48
2023/08/31 09:58:33;;;;;;;4.53;2.28;;;18.60;99.90;;;;;;5112007;28;20153;-47
2023/08/31 10:00:59;;;;;;;3.25;2.10;;;18.30;99.90;;;;;;5111631;28;20255;-47
2023/08/31 10:03:27;;;;;;;6.05;2.08;;;18.40;99.90;;;;;;5112157;28;20191;-49
2023/08/31 10:05:54;;;;;;;6.78;2.17;;;18.40;99.90;;;;;;5112383;28;20202;-49
2023/08/31 10:08:20;;;;;;;5.13;2.20;;;;;;;;;;5112393;28;20207;-50
2023/08/31 10:10:47;;;;;;;4.03;1.95;;;;;;;;;;5112177;28;20192;-47
2023/08/31 10:13:14;;;;;;;3.58;2.00;;;19.00;99.90;;;;;;5112322;28;20592;-49
2023/08/31 10:15:42;;;;;;;4.90;2.15;;;19.20;99.90;;;;;;5111573;28;20279;-50
2023/08/31 10:18:08;;;;;;;4.32;2.22;;;19.10;99.90;;;;;;5111984;28;20161;-47
2023/08/31 10:20:34;;;;;;;4.75;2.00;;;18.70;99.90;;;;;;5111685;28;20664;-47
2023/08/31 10:23:05;;;;;;;4.50;2.28;;;19.00;99.90;;;;;;5111721;27;20695;-46
2023/08/31 10:25:46;;;;;;;10.45;2.47;;;19.40;99.90;;;;;;5111703;28;20167;-48
2023/08/31 10:28:23;;;;;;;4.60;1.80;;;19.70;99.90;;;;;;5112791;28;20168;-49
2023/08/31 10:31:14;;;;;;;6.63;2.20;;;19.50;99.90;;;;;;5111647;28;20660;-48
2023/08/31 10:33:41;;;;;;;5.53;2.17;;;;;;;;;;5111615;28;20642;-50
2023/08/31 10:36:18;;;;;;;5.70;2.40;;;19.10;99.90;;;;;;5111402;28;20684;-49
2023/08/31 10:39:17;;;;;;;4.97;2.47;;;19.40;99.90;;;;;;5112247;28;20168;-47
2023/08/31 10:41:52;;;;;;;6.85;2.00;;;20.00;99.90;;;;;;5111773;28;20156;-49
2023/08/31 10:44:18;;;;;;;4.75;1.92;;;;;;;;;;5111248;28;20216;-50
2023/08/31 10:46:45;;;;;;;4.35;2.22;;;19.00;99.90;;;;;;5111994;28;20169;-47
2023/08/31 10:49:11;;;;;;;5.43;2.10;;;;;;;;;;5111689;28;20172;-47
2023/08/31 10:51:42;;;;;;;5.88;2.10;;;18.50;99.90;;;;;;5111254;28;20177;-50
2023/08/31 10:54:13;;;;;;;3.20;2.22;;;18.70;99.90;;;;;;5111354;28;20664;-48
2023/08/31 10:56:57;;;;;;;3.00;2.05;;;18.60;99.90;;;;;;5111075;28;20300;-50
2023/08/31 10:59:24;;;;;;;3.20;2.00;;;;;;;;;;5109619;28;20614;-49
2023/08/31 11:01:54;;;;;;;6.57;2.17;;;18.80;99.90;;;;;;5109761;28;20179;-49
2023/08/31 11:04:21;;;;;;;7.78;3.03;;;19.00;99.90;;;;;;5111041;28;20173;-48
2023/08/31 11:06:47;;;;;;;6.15;2.22;;;19.40;99.90;;;;;;5110982;28;20172;-48
2023/08/31 11:09:21;;;;;;;4.97;2.03;;;19.80;99.90;;;;;;5111374;28;20621;-51
2023/08/31 11:11:47;;;;;;;5.75;2.47;;;20.10;99.90;;;;;;5110714;28;20264;-51
2023/08/31 11:14:13;;;;;;;6.47;1.88;;;;;;;;;;5110328;28;20226;-51
2023/08/31 11:16:40;;;;;;;4.40;2.00;;;;;;;;;;5109987;28;20204;-49
2023/08/31 11:19:06;;;;;;;4.68;2.22;;;;;;;;;;5110734;28;20193;-51
2023/08/31 11:21:32;;;;;;;3.85;2.17;;;;;;;;;;5110590;28;20204;-48
2023/08/31 11:23:58;;;;;;;5.57;2.58;;;20.40;99.90;;;;;;5110544;28;20164;-48
2023/08/31 11:26:29;;;;;;;4.90;2.03;;;20.40;99.90;;;;;;5108767;28;20672;-49
2023/08/31 11:28:56;;;;;;;3.60;2.83;;;;;;;;;;5110204;28;20208;-49
2023/08/31 11:31:25;;;;;;;5.47;2.22;;;20.60;99.90;;;;;;5110762;28;20164;-50
2023/08/31 11:33:51;;;;;;;8.55;2.72;;;;;;;;;;5109859;28;20248;-46
2023/08/31 11:36:17;;;;;;;6.65;2.25;;;20.90;99.90;;;;;;5110444;28;20735;-49
2023/08/31 11:38:43;;;;;;;9.68;2.70;;;21.10;99.90;;;;;;5110819;28;20180;-46
2023/08/31 11:41:09;;;;;;;4.97;2.00;;;21.10;99.90;;;;;;5110446;28;20165;-46
2023/08/31 11:43:36;;;;;;;3.83;1.83;;;21.00;99.90;;;;;;5108628;28;20211;-46
2023/08/31 11:46:03;;;;;;;2.72;2.08;;;20.70;99.90;;;;;;5110500;28;20173;-46
2023/08/31 11:48:29;;;;;;;3.40;1.90;;;;;;;;;;5110631;28;20196;-44
2023/08/31 11:50:55;;;;;;;5.40;1.90;;;20.50;99.90;;;;;;5109932;28;20206;-46
2023/08/31 11:53:20;;;;;;;7.53;2.35;;;20.60;99.90;;;;;;5110068;28;20173;-46
2023/08/31 11:55:51;;;;;;;6.15;1.90;;;20.70;99.90;;;;;;5109836;28;20230;-46
2023/08/31 11:58:17;;;;;;;4.40;2.17;;;;;;;;;;5109421;28;20161;-48
2023/08/31 12:00:46;;;;;;;4.68;1.50;;;20.60;99.90;;;;;;5110620;28;20180;-46
2023/08/31 12:03:12;;;;;;;4.57;2.20;;;20.40;99.90;;;;;;5110558;28;20169;-46
2023/08/31 12:05:45;;;;;;;4.65;2.03;;;20.30;99.90;;;;;;5109154;28;20176;-51
2023/08/31 12:08:13;;;;;;;7.03;2.08;;;20.20;99.90;;;;;;5110435;28;20259;-51
2023/08/31 12:10:42;;;;;;;4.70;2.60;;;20.00;99.90;;;;;;5109779;28;20165;-51
2023/08/31 12:13:14;;;;;;;4.35;1.95;;;19.60;99.90;;;;;;5109793;28;20188;-51
2023/08/31 12:15:46;;;;;;;5.22;2.10;;;19.60;99.90;;;;;;5109953;28;20203;-51
2023/08/31 12:18:14;;;;;;;2.92;1.83;;;19.50;99.90;;;;;;5110656;28;20173;-51
2023/08/31 12:20:43;;;;;;;3.45;1.73;;;19.40;99.90;;;;;;5109439;28;20165;-51
2023/08/31 12:23:09;;;;;;;2.55;1.67;;;19.70;99.90;;;;;;5109737;28;20167;-50
2023/08/31 12:25:36;;;;;;;5.90;2.25;;;;;;;;;;5113408;28;20665;-51
2023/08/31 12:28:05;;;;;;;3.65;1.80;;;20.00;99.90;;;;;;5113938;28;20171;-51
2023/08/31 12:30:31;;;;;;;6.97;2.55;;;;;;;;;;5113837;28;20267;-49
2023/08/31 12:32:57;;;;;;;4.07;2.25;;;;;;;;;;5113700;27;20196;-51
2023/08/31 12:35:23;;;;;;;4.57;2.40;;;;;;;;;;5113622;28;20192;-50
2023/08/31 12:37:50;;;;;;;5.78;2.42;;;;;;;;;;5113323;28;20172;-56
2023/08/31 12:40:19;;;;;;;6.45;2.30;;;20.50;99.90;;;;;;5113650;28;20259;-52
2023/08/31 12:42:45;;;;;;;5.25;2.53;;;;;;;;;;5113343;28;20833;-51
2023/08/31 12:45:11;;;;;;;7.82;2.83;;;20.80;99.90;;;;;;5113770;28;20243;-50
2023/08/31 12:47:36;;;;;;;7.82;2.72;;;20.40;99.90;;;;;;5113032;28;20629;-50
2023/08/31 12:50:03;;;;;;;5.50;2.60;;;20.20;99.90;;;;;;5113389;28;20888;-47
2023/08/31 12:52:29;;;;;;;4.57;2.50;;;;;;;;;;5112721;28;20157;-47
2023/08/31 12:54:55;;;;;;;5.40;2.65;;;;;;;;;;5111031;28;20225;-46
2023/08/31 12:57:20;;;;;;;12.90;3.58;;;19.90;99.90;;;;;;5113532;27;20562;-46
2023/08/31 12:59:46;;;;;;;6.45;2.55;;;19.70;99.90;;;;;;5113266;28;20200;-46
2023/08/31 13:02:12;;;;;;;6.68;2.58;;;;;;;;;;5113775;28;20218;-46
2023/08/31 13:04:37;;;;;;;5.35;2.05;;;19.60;99.90;;;;;;5113285;28;20165;-46